sensor_id;sensor_type;location;lat;lon;timestamp;P1;durP1;ratioP1;P2;durP2;ratioP2
81908;SDS011;71372;43.514;1.512;2023-08-01T00:02:11;4.38;;;2.47;;
81908;SDS011;71372;43.514;1.512;2023-08-01T00:04:37;5.60;;;2.30;;
81908;SDS011;71372;43.514;1.512;2023-08-01T00:07:03;4.75;;;2.50;;
81908;SDS011;71372;43.514;1.512;2023-08-01T00:09:29;5.43;;;2.47;;
81908;SDS011;71372;43.514;1.512;2023-08-01T00:11:55;5.25;;;2.40;;
81908;SDS011;71372;43.514;1.512;2023-08-01T00:14:21;5.22;;;2.40;;
81908;SDS011;71372;43.514;1.512;2023-08-01T00:16:50;5.72;;;2.70;;
81908;SDS011;71372;43.514;1.512;2023-08-01T00:19:16;5.63;;;2.72;;
81908;SDS011;71372;43.514;1.512;2023-08-01T00:21:43;4.35;;;2.40;;
81908;SDS011;71372;43.514;1.512;2023-08-01T00:24:09;5.25;;;2.85;;
81908;SDS011;71372;43.514;1.512;2023-08-01T00:26:35;5.25;;;2.42;;
81908;SDS011;71372;43.514;1.512;2023-08-01T00:29:01;4.22;;;2.53;;
81908;SDS011;71372;43.514;1.512;2023-08-01T00:31:27;4.45;;;2.25;;
81908;SDS011;71372;43.514;1.512;2023-08-01T00:33:53;4.55;;;2.45;;
81908;SDS011;71372;43.514;1.512;2023-08-01T00:36:19;5.72;;;2.83;;
81908;SDS011;71372;43.514;1.512;2023-08-01T00:38:45;4.53;;;2.53;;
81908;SDS011;71372;43.514;1.512;2023-08-01T00:41:11;5.63;;;3.30;;
81908;SDS011;71372;43.514;1.512;2023-08-01T00:43:37;5.45;;;3.13;;
81908;SDS011;71372;43.514;1.512;2023-08-01T00:46:04;5.88;;;3.17;;
81908;SDS011;71372;43.514;1.512;2023-08-01T00:48:31;6.60;;;3.00;;
81908;SDS011;71372;43.514;1.512;2023-08-01T00:50:58;8.85;;;3.35;;
81908;SDS011;71372;43.514;1.512;2023-08-01T00:53:26;5.78;;;3.03;;
81908;SDS011;71372;43.514;1.512;2023-08-01T00:55:52;7.03;;;3.30;;
81908;SDS011;71372;43.514;1.512;2023-08-01T00:58:20;6.65;;;3.50;;
81908;SDS011;71372;43.514;1.512;2023-08-01T01:00:46;5.72;;;2.92;;
81908;SDS011;71372;43.514;1.512;2023-08-01T01:03:13;5.32;;;2.70;;
81908;SDS011;71372;43.514;1.512;2023-08-01T01:05:42;4.85;;;3.00;;
81908;SDS011;71372;43.514;1.512;2023-08-01T01:08:13;4.25;;;3.00;;
81908;SDS011;71372;43.514;1.512;2023-08-01T01:10:40;5.80;;;3.30;;
81908;SDS011;71372;43.514;1.512;2023-08-01T01:13:06;4.72;;;3.28;;
81908;SDS011;71372;43.514;1.512;2023-08-01T01:15:32;4.95;;;2.63;;
81908;SDS011;71372;43.514;1.512;2023-08-01T01:17:58;6.88;;;3.17;;
81908;SDS011;71372;43.514;1.512;2023-08-01T01:20:24;5.25;;;3.10;;
81908;SDS011;71372;43.514;1.512;2023-08-01T01:22:51;10.48;;;3.42;;
81908;SDS011;71372;43.514;1.512;2023-08-01T01:25:20;4.82;;;3.10;;
81908;SDS011;71372;43.514;1.512;2023-08-01T01:27:48;4.95;;;3.05;;
81908;SDS011;71372;43.514;1.512;2023-08-01T01:30:15;6.78;;;3.50;;
81908;SDS011;71372;43.514;1.512;2023-08-01T01:32:42;4.82;;;3.60;;
81908;SDS011;71372;43.514;1.512;2023-08-01T01:35:08;7.93;;;3.83;;
81908;SDS011;71372;43.514;1.512;2023-08-01T01:37:34;6.53;;;3.75;;
81908;SDS011;71372;43.514;1.512;2023-08-01T01:40:00;6.80;;;3.85;;
81908;SDS011;71372;43.514;1.512;2023-08-01T01:42:26;4.95;;;3.75;;
81908;SDS011;71372;43.514;1.512;2023-08-01T01:44:52;6.72;;;4.00;;
81908;SDS011;71372;43.514;1.512;2023-08-01T01:47:18;7.05;;;4.00;;
81908;SDS011;71372;43.514;1.512;2023-08-01T01:49:44;5.38;;;3.67;;
81908;SDS011;71372;43.514;1.512;2023-08-01T01:52:10;7.10;;;4.20;;
81908;SDS011;71372;43.514;1.512;2023-08-01T01:54:35;8.70;;;4.25;;
81908;SDS011;71372;43.514;1.512;2023-08-01T01:57:01;6.57;;;4.05;;
81908;SDS011;71372;43.514;1.512;2023-08-01T01:59:27;6.53;;;4.28;;
81908;SDS011;71372;43.514;1.512;2023-08-01T02:01:53;5.75;;;3.92;;
81908;SDS011;71372;43.514;1.512;2023-08-01T02:04:19;9.43;;;4.10;;
81908;SDS011;71372;43.514;1.512;2023-08-01T02:06:45;7.18;;;4.20;;
81908;SDS011;71372;43.514;1.512;2023-08-01T02:09:11;6.55;;;3.97;;
81908;SDS011;71372;43.514;1.512;2023-08-01T02:11:37;6.22;;;3.85;;
81908;SDS011;71372;43.514;1.512;2023-08-01T02:14:03;6.20;;;3.85;;
81908;SDS011;71372;43.514;1.512;2023-08-01T02:16:29;6.22;;;3.95;;
81908;SDS011;71372;43.514;1.512;2023-08-01T02:18:55;4.68;;;3.58;;
81908;SDS011;71372;43.514;1.512;2023-08-01T02:21:21;6.03;;;3.60;;
81908;SDS011;71372;43.514;1.512;2023-08-01T02:23:47;8.25;;;4.15;;
81908;SDS011;71372;43.514;1.512;2023-08-01T02:26:13;6.95;;;3.70;;
81908;SDS011;71372;43.514;1.512;2023-08-01T02:28:40;6.47;;;4.28;;
81908;SDS011;71372;43.514;1.512;2023-08-01T02:31:06;5.55;;;3.70;;
81908;SDS011;71372;43.514;1.512;2023-08-01T02:33:32;6.00;;;3.70;;
81908;SDS011;71372;43.514;1.512;2023-08-01T02:35:58;5.60;;;3.95;;
81908;SDS011;71372;43.514;1.512;2023-08-01T02:38:24;5.97;;;4.07;;
81908;SDS011;71372;43.514;1.512;2023-08-01T02:40:50;7.80;;;3.80;;
81908;SDS011;71372;43.514;1.512;2023-08-01T02:43:16;9.18;;;4.38;;
81908;SDS011;71372;43.514;1.512;2023-08-01T02:45:42;6.75;;;3.90;;
81908;SDS011;71372;43.514;1.512;2023-08-01T02:48:08;8.23;;;4.32;;
81908;SDS011;71372;43.514;1.512;2023-08-01T02:50:37;6.88;;;4.07;;
81908;SDS011;71372;43.514;1.512;2023-08-01T02:53:04;12.05;;;4.50;;
81908;SDS011;71372;43.514;1.512;2023-08-01T02:55:30;5.78;;;4.53;;
81908;SDS011;71372;43.514;1.512;2023-08-01T02:57:56;7.80;;;4.57;;
81908;SDS011;71372;43.514;1.512;2023-08-01T03:00:22;7.15;;;3.90;;
81908;SDS011;71372;43.514;1.512;2023-08-01T03:02:48;8.40;;;3.92;;
81908;SDS011;71372;43.514;1.512;2023-08-01T03:05:14;6.32;;;4.03;;
81908;SDS011;71372;43.514;1.512;2023-08-01T03:07:40;9.02;;;4.25;;
81908;SDS011;71372;43.514;1.512;2023-08-01T03:10:06;6.63;;;4.30;;
81908;SDS011;71372;43.514;1.512;2023-08-01T03:12:32;6.70;;;4.18;;
81908;SDS011;71372;43.514;1.512;2023-08-01T03:14:58;6.43;;;4.35;;
81908;SDS011;71372;43.514;1.512;2023-08-01T03:17:24;5.82;;;4.13;;
81908;SDS011;71372;43.514;1.512;2023-08-01T03:19:50;7.38;;;4.63;;
81908;SDS011;71372;43.514;1.512;2023-08-01T03:22:16;7.70;;;4.75;;
81908;SDS011;71372;43.514;1.512;2023-08-01T03:24:42;8.07;;;5.05;;
81908;SDS011;71372;43.514;1.512;2023-08-01T03:27:08;6.95;;;4.80;;
81908;SDS011;71372;43.514;1.512;2023-08-01T03:29:34;7.90;;;4.85;;
81908;SDS011;71372;43.514;1.512;2023-08-01T03:32:00;9.90;;;5.07;;
81908;SDS011;71372;43.514;1.512;2023-08-01T03:34:26;6.82;;;4.80;;
81908;SDS011;71372;43.514;1.512;2023-08-01T03:36:52;7.05;;;5.10;;
81908;SDS011;71372;43.514;1.512;2023-08-01T03:39:18;6.53;;;4.82;;
81908;SDS011;71372;43.514;1.512;2023-08-01T03:41:44;8.57;;;4.88;;
81908;SDS011;71372;43.514;1.512;2023-08-01T03:44:10;6.95;;;4.70;;
81908;SDS011;71372;43.514;1.512;2023-08-01T03:46:36;7.63;;;4.88;;
81908;SDS011;71372;43.514;1.512;2023-08-01T03:49:02;6.90;;;4.97;;
81908;SDS011;71372;43.514;1.512;2023-08-01T03:51:28;10.10;;;5.40;;
81908;SDS011;71372;43.514;1.512;2023-08-01T03:53:54;6.65;;;4.85;;
81908;SDS011;71372;43.514;1.512;2023-08-01T03:56:20;6.25;;;4.82;;
81908;SDS011;71372;43.514;1.512;2023-08-01T03:58:46;8.52;;;4.78;;
81908;SDS011;71372;43.514;1.512;2023-08-01T04:01:12;6.22;;;5.10;;
81908;SDS011;71372;43.514;1.512;2023-08-01T04:03:38;7.40;;;4.90;;
81908;SDS011;71372;43.514;1.512;2023-08-01T04:06:04;8.20;;;4.85;;
81908;SDS011;71372;43.514;1.512;2023-08-01T04:08:30;8.15;;;4.90;;
81908;SDS011;71372;43.514;1.512;2023-08-01T04:10:56;8.38;;;4.78;;
81908;SDS011;71372;43.514;1.512;2023-08-01T04:13:21;6.57;;;4.80;;
81908;SDS011;71372;43.514;1.512;2023-08-01T04:15:47;6.35;;;5.00;;
81908;SDS011;71372;43.514;1.512;2023-08-01T04:18:14;7.00;;;5.00;;
81908;SDS011;71372;43.514;1.512;2023-08-01T04:20:40;7.05;;;4.50;;
81908;SDS011;71372;43.514;1.512;2023-08-01T04:23:06;5.78;;;4.10;;
81908;SDS011;71372;43.514;1.512;2023-08-01T04:25:32;5.97;;;4.90;;
81908;SDS011;71372;43.514;1.512;2023-08-01T04:27:57;6.20;;;4.25;;
81908;SDS011;71372;43.514;1.512;2023-08-01T04:30:23;7.90;;;4.63;;
81908;SDS011;71372;43.514;1.512;2023-08-01T04:32:49;7.82;;;4.82;;
81908;SDS011;71372;43.514;1.512;2023-08-01T04:35:15;7.15;;;4.65;;
81908;SDS011;71372;43.514;1.512;2023-08-01T04:37:41;8.00;;;4.38;;
81908;SDS011;71372;43.514;1.512;2023-08-01T04:40:07;6.40;;;4.18;;
81908;SDS011;71372;43.514;1.512;2023-08-01T04:42:34;10.07;;;5.00;;
81908;SDS011;71372;43.514;1.512;2023-08-01T04:45:00;8.15;;;4.40;;
81908;SDS011;71372;43.514;1.512;2023-08-01T04:47:26;9.00;;;4.93;;
81908;SDS011;71372;43.514;1.512;2023-08-01T04:49:51;8.55;;;4.68;;
81908;SDS011;71372;43.514;1.512;2023-08-01T04:52:17;6.15;;;4.18;;
81908;SDS011;71372;43.514;1.512;2023-08-01T04:54:43;7.90;;;4.72;;
81908;SDS011;71372;43.514;1.512;2023-08-01T04:57:09;7.40;;;4.68;;
81908;SDS011;71372;43.514;1.512;2023-08-01T04:59:35;7.85;;;4.53;;
81908;SDS011;71372;43.514;1.512;2023-08-01T05:02:01;8.63;;;4.80;;
81908;SDS011;71372;43.514;1.512;2023-08-01T05:04:27;8.18;;;5.20;;
81908;SDS011;71372;43.514;1.512;2023-08-01T05:06:53;9.65;;;4.88;;
81908;SDS011;71372;43.514;1.512;2023-08-01T05:09:19;6.70;;;5.03;;
81908;SDS011;71372;43.514;1.512;2023-08-01T05:11:45;6.85;;;4.88;;
81908;SDS011;71372;43.514;1.512;2023-08-01T05:14:11;6.95;;;4.65;;
81908;SDS011;71372;43.514;1.512;2023-08-01T05:16:37;7.78;;;4.97;;
81908;SDS011;71372;43.514;1.512;2023-08-01T05:19:03;7.63;;;4.95;;
81908;SDS011;71372;43.514;1.512;2023-08-01T05:21:29;9.65;;;5.57;;
81908;SDS011;71372;43.514;1.512;2023-08-01T05:23:55;8.07;;;4.82;;
81908;SDS011;71372;43.514;1.512;2023-08-01T05:26:21;8.98;;;5.25;;
81908;SDS011;71372;43.514;1.512;2023-08-01T05:28:47;9.63;;;5.63;;
81908;SDS011;71372;43.514;1.512;2023-08-01T05:31:13;8.00;;;4.97;;
81908;SDS011;71372;43.514;1.512;2023-08-01T05:33:39;7.03;;;5.10;;
81908;SDS011;71372;43.514;1.512;2023-08-01T05:36:05;8.38;;;5.00;;
81908;SDS011;71372;43.514;1.512;2023-08-01T05:38:30;8.70;;;5.05;;
81908;SDS011;71372;43.514;1.512;2023-08-01T05:40:56;10.80;;;5.55;;
81908;SDS011;71372;43.514;1.512;2023-08-01T05:43:22;6.05;;;4.85;;
81908;SDS011;71372;43.514;1.512;2023-08-01T05:45:48;8.00;;;5.15;;
81908;SDS011;71372;43.514;1.512;2023-08-01T05:48:15;6.55;;;4.72;;
81908;SDS011;71372;43.514;1.512;2023-08-01T05:50:41;6.40;;;4.45;;
81908;SDS011;71372;43.514;1.512;2023-08-01T05:53:07;7.43;;;4.63;;
81908;SDS011;71372;43.514;1.512;2023-08-01T05:55:33;9.13;;;4.68;;
81908;SDS011;71372;43.514;1.512;2023-08-01T05:57:59;8.68;;;5.22;;
81908;SDS011;71372;43.514;1.512;2023-08-01T06:00:25;7.35;;;4.68;;
81908;SDS011;71372;43.514;1.512;2023-08-01T06:02:51;8.57;;;4.63;;
81908;SDS011;71372;43.514;1.512;2023-08-01T06:05:17;7.60;;;4.78;;
81908;SDS011;71372;43.514;1.512;2023-08-01T06:07:43;8.07;;;4.47;;
81908;SDS011;71372;43.514;1.512;2023-08-01T06:10:09;7.55;;;4.95;;
81908;SDS011;71372;43.514;1.512;2023-08-01T06:12:35;7.57;;;4.13;;
81908;SDS011;71372;43.514;1.512;2023-08-01T06:15:02;7.47;;;4.38;;
81908;SDS011;71372;43.514;1.512;2023-08-01T06:17:28;7.60;;;4.32;;
81908;SDS011;71372;43.514;1.512;2023-08-01T06:19:54;7.40;;;4.10;;
81908;SDS011;71372;43.514;1.512;2023-08-01T06:22:20;8.68;;;4.22;;
81908;SDS011;71372;43.514;1.512;2023-08-01T06:24:47;9.00;;;3.78;;
81908;SDS011;71372;43.514;1.512;2023-08-01T06:27:13;7.93;;;4.13;;
81908;SDS011;71372;43.514;1.512;2023-08-01T06:29:40;6.97;;;3.25;;
81908;SDS011;71372;43.514;1.512;2023-08-01T06:32:06;6.78;;;3.30;;
81908;SDS011;71372;43.514;1.512;2023-08-01T06:34:32;7.55;;;3.47;;
81908;SDS011;71372;43.514;1.512;2023-08-01T06:36:58;6.63;;;3.60;;
81908;SDS011;71372;43.514;1.512;2023-08-01T06:39:24;5.97;;;3.40;;
81908;SDS011;71372;43.514;1.512;2023-08-01T06:41:50;6.35;;;3.30;;
81908;SDS011;71372;43.514;1.512;2023-08-01T06:44:16;5.25;;;3.28;;
81908;SDS011;71372;43.514;1.512;2023-08-01T06:46:42;6.93;;;3.88;;
81908;SDS011;71372;43.514;1.512;2023-08-01T06:49:08;5.03;;;3.08;;
81908;SDS011;71372;43.514;1.512;2023-08-01T06:51:34;5.13;;;2.75;;
81908;SDS011;71372;43.514;1.512;2023-08-01T06:54:00;4.53;;;2.97;;
81908;SDS011;71372;43.514;1.512;2023-08-01T06:56:26;7.30;;;3.22;;
81908;SDS011;71372;43.514;1.512;2023-08-01T06:58:52;7.30;;;2.92;;
81908;SDS011;71372;43.514;1.512;2023-08-01T07:01:18;5.10;;;2.83;;
81908;SDS011;71372;43.514;1.512;2023-08-01T07:03:44;3.78;;;2.60;;
81908;SDS011;71372;43.514;1.512;2023-08-01T07:06:11;4.72;;;2.92;;
81908;SDS011;71372;43.514;1.512;2023-08-01T07:08:37;6.18;;;3.10;;
81908;SDS011;71372;43.514;1.512;2023-08-01T07:11:03;6.07;;;2.95;;
81908;SDS011;71372;43.514;1.512;2023-08-01T07:13:29;4.43;;;3.00;;
81908;SDS011;71372;43.514;1.512;2023-08-01T07:15:55;5.13;;;2.90;;
81908;SDS011;71372;43.514;1.512;2023-08-01T07:18:21;7.18;;;2.88;;
81908;SDS011;71372;43.514;1.512;2023-08-01T07:20:46;5.18;;;2.75;;
81908;SDS011;71372;43.514;1.512;2023-08-01T07:23:13;7.57;;;2.90;;
81908;SDS011;71372;43.514;1.512;2023-08-01T07:25:38;5.90;;;2.80;;
81908;SDS011;71372;43.514;1.512;2023-08-01T07:28:04;4.57;;;2.63;;
81908;SDS011;71372;43.514;1.512;2023-08-01T07:30:30;3.92;;;2.67;;
81908;SDS011;71372;43.514;1.512;2023-08-01T07:32:56;4.38;;;2.90;;
81908;SDS011;71372;43.514;1.512;2023-08-01T07:35:22;4.90;;;2.97;;
81908;SDS011;71372;43.514;1.512;2023-08-01T07:37:48;5.43;;;2.88;;
81908;SDS011;71372;43.514;1.512;2023-08-01T07:40:14;4.57;;;2.70;;
81908;SDS011;71372;43.514;1.512;2023-08-01T07:42:40;4.75;;;2.95;;
81908;SDS011;71372;43.514;1.512;2023-08-01T07:45:06;4.72;;;2.53;;
81908;SDS011;71372;43.514;1.512;2023-08-01T07:47:33;5.53;;;3.08;;
81908;SDS011;71372;43.514;1.512;2023-08-01T07:49:59;6.63;;;3.03;;
81908;SDS011;71372;43.514;1.512;2023-08-01T07:52:25;5.25;;;3.05;;
81908;SDS011;71372;43.514;1.512;2023-08-01T07:54:51;6.32;;;2.97;;
81908;SDS011;71372;43.514;1.512;2023-08-01T07:57:19;5.38;;;2.83;;
81908;SDS011;71372;43.514;1.512;2023-08-01T07:59:45;4.45;;;2.90;;
81908;SDS011;71372;43.514;1.512;2023-08-01T08:02:10;7.85;;;3.08;;
81908;SDS011;71372;43.514;1.512;2023-08-01T08:04:36;6.57;;;2.97;;
81908;SDS011;71372;43.514;1.512;2023-08-01T08:07:02;6.28;;;2.97;;
81908;SDS011;71372;43.514;1.512;2023-08-01T08:09:29;6.03;;;3.08;;
81908;SDS011;71372;43.514;1.512;2023-08-01T08:11:54;5.57;;;3.17;;
81908;SDS011;71372;43.514;1.512;2023-08-01T08:14:23;6.80;;;3.08;;
81908;SDS011;71372;43.514;1.512;2023-08-01T08:16:49;6.80;;;3.42;;
81908;SDS011;71372;43.514;1.512;2023-08-01T08:19:15;5.40;;;2.92;;
81908;SDS011;71372;43.514;1.512;2023-08-01T08:21:41;4.63;;;3.55;;
81908;SDS011;71372;43.514;1.512;2023-08-01T08:24:07;5.88;;;2.83;;
81908;SDS011;71372;43.514;1.512;2023-08-01T08:26:33;6.75;;;3.13;;
81908;SDS011;71372;43.514;1.512;2023-08-01T08:29:05;5.85;;;3.03;;
81908;SDS011;71372;43.514;1.512;2023-08-01T08:31:31;6.03;;;3.10;;
81908;SDS011;71372;43.514;1.512;2023-08-01T08:33:57;7.82;;;2.97;;
81908;SDS011;71372;43.514;1.512;2023-08-01T08:36:23;5.28;;;3.05;;
81908;SDS011;71372;43.514;1.512;2023-08-01T08:38:49;5.43;;;2.95;;
81908;SDS011;71372;43.514;1.512;2023-08-01T08:41:23;5.65;;;2.85;;
81908;SDS011;71372;43.514;1.512;2023-08-01T08:43:55;4.65;;;2.75;;
81908;SDS011;71372;43.514;1.512;2023-08-01T08:46:24;6.97;;;3.20;;
81908;SDS011;71372;43.514;1.512;2023-08-01T08:48:53;4.88;;;2.78;;
81908;SDS011;71372;43.514;1.512;2023-08-01T08:51:21;5.63;;;3.22;;
81908;SDS011;71372;43.514;1.512;2023-08-01T08:53:50;3.75;;;2.70;;
81908;SDS011;71372;43.514;1.512;2023-08-01T08:56:19;5.95;;;2.85;;
81908;SDS011;71372;43.514;1.512;2023-08-01T08:58:45;4.60;;;2.67;;
81908;SDS011;71372;43.514;1.512;2023-08-01T09:01:12;4.75;;;2.60;;
81908;SDS011;71372;43.514;1.512;2023-08-01T09:03:39;4.25;;;2.63;;
81908;SDS011;71372;43.514;1.512;2023-08-01T09:08:49;3.80;;;2.38;;
81908;SDS011;71372;43.514;1.512;2023-08-01T09:11:17;4.25;;;2.55;;
81908;SDS011;71372;43.514;1.512;2023-08-01T09:13:44;2.83;;;2.03;;
81908;SDS011;71372;43.514;1.512;2023-08-01T09:16:10;4.90;;;2.25;;
81908;SDS011;71372;43.514;1.512;2023-08-01T09:18:50;4.75;;;2.40;;
81908;SDS011;71372;43.514;1.512;2023-08-01T09:21:20;4.75;;;2.40;;
81908;SDS011;71372;43.514;1.512;2023-08-01T09:23:47;5.65;;;2.60;;
81908;SDS011;71372;43.514;1.512;2023-08-01T09:26:16;4.65;;;2.20;;
81908;SDS011;71372;43.514;1.512;2023-08-01T09:28:43;4.53;;;2.08;;
81908;SDS011;71372;43.514;1.512;2023-08-01T09:31:10;4.78;;;2.20;;
81908;SDS011;71372;43.514;1.512;2023-08-01T09:33:40;3.60;;;2.35;;
81908;SDS011;71372;43.514;1.512;2023-08-01T09:36:09;4.82;;;2.38;;
81908;SDS011;71372;43.514;1.512;2023-08-01T09:38:36;4.93;;;2.35;;
81908;SDS011;71372;43.514;1.512;2023-08-01T09:43:33;5.15;;;2.30;;
81908;SDS011;71372;43.514;1.512;2023-08-01T09:46:01;5.35;;;2.28;;
81908;SDS011;71372;43.514;1.512;2023-08-01T09:48:28;4.38;;;2.15;;
81908;SDS011;71372;43.514;1.512;2023-08-01T09:51:08;4.30;;;2.17;;
81908;SDS011;71372;43.514;1.512;2023-08-01T09:53:52;3.53;;;2.10;;
81908;SDS011;71372;43.514;1.512;2023-08-01T09:56:24;4.50;;;2.30;;
81908;SDS011;71372;43.514;1.512;2023-08-01T09:58:52;3.63;;;2.03;;
81908;SDS011;71372;43.514;1.512;2023-08-01T10:01:20;5.03;;;2.38;;
81908;SDS011;71372;43.514;1.512;2023-08-01T10:03:49;3.45;;;1.70;;
81908;SDS011;71372;43.514;1.512;2023-08-01T10:06:21;3.15;;;2.10;;
81908;SDS011;71372;43.514;1.512;2023-08-01T10:08:48;3.08;;;1.75;;
81908;SDS011;71372;43.514;1.512;2023-08-01T10:11:20;3.97;;;1.80;;
81908;SDS011;71372;43.514;1.512;2023-08-01T10:13:48;2.50;;;1.70;;
81908;SDS011;71372;43.514;1.512;2023-08-01T10:18:42;2.85;;;1.55;;
81908;SDS011;71372;43.514;1.512;2023-08-01T10:21:09;2.67;;;1.20;;
81908;SDS011;71372;43.514;1.512;2023-08-01T10:23:41;2.15;;;1.30;;
81908;SDS011;71372;43.514;1.512;2023-08-01T10:26:08;3.03;;;1.15;;
81908;SDS011;71372;43.514;1.512;2023-08-01T10:28:37;1.77;;;1.30;;
81908;SDS011;71372;43.514;1.512;2023-08-01T10:33:33;2.47;;;1.20;;
81908;SDS011;71372;43.514;1.512;2023-08-01T10:36:00;2.72;;;1.60;;
81908;SDS011;71372;43.514;1.512;2023-08-01T10:38:26;2.17;;;1.25;;
81908;SDS011;71372;43.514;1.512;2023-08-01T10:40:52;3.00;;;1.27;;
81908;SDS011;71372;43.514;1.512;2023-08-01T10:43:21;2.20;;;1.13;;
81908;SDS011;71372;43.514;1.512;2023-08-01T10:45:48;3.35;;;1.20;;
81908;SDS011;71372;43.514;1.512;2023-08-01T10:48:14;2.28;;;1.20;;
81908;SDS011;71372;43.514;1.512;2023-08-01T10:50:40;2.08;;;1.23;;
81908;SDS011;71372;43.514;1.512;2023-08-01T10:53:09;2.20;;;1.30;;
81908;SDS011;71372;43.514;1.512;2023-08-01T10:55:40;1.70;;;1.10;;
81908;SDS011;71372;43.514;1.512;2023-08-01T10:58:10;1.85;;;1.10;;
81908;SDS011;71372;43.514;1.512;2023-08-01T11:00:37;2.38;;;1.23;;
81908;SDS011;71372;43.514;1.512;2023-08-01T11:03:03;2.22;;;1.40;;
81908;SDS011;71372;43.514;1.512;2023-08-01T11:05:29;2.78;;;1.20;;
81908;SDS011;71372;43.514;1.512;2023-08-01T11:07:59;2.10;;;1.30;;
81908;SDS011;71372;43.514;1.512;2023-08-01T11:10:27;1.60;;;1.10;;
81908;SDS011;71372;43.514;1.512;2023-08-01T11:12:54;2.22;;;1.02;;
81908;SDS011;71372;43.514;1.512;2023-08-01T11:15:20;2.80;;;1.00;;
81908;SDS011;71372;43.514;1.512;2023-08-01T11:17:48;2.33;;;1.00;;
81908;SDS011;71372;43.514;1.512;2023-08-01T11:20:23;2.85;;;1.08;;
81908;SDS011;71372;43.514;1.512;2023-08-01T11:25:39;1.42;;;0.90;;
81908;SDS011;71372;43.514;1.512;2023-08-01T11:28:11;3.65;;;0.90;;
81908;SDS011;71372;43.514;1.512;2023-08-01T11:30:40;1.63;;;1.10;;
81908;SDS011;71372;43.514;1.512;2023-08-01T11:33:19;4.43;;;1.10;;
81908;SDS011;71372;43.514;1.512;2023-08-01T11:35:56;2.05;;;1.20;;
81908;SDS011;71372;43.514;1.512;2023-08-01T11:38:26;2.65;;;1.23;;
81908;SDS011;71372;43.514;1.512;2023-08-01T11:40:57;1.75;;;1.13;;
81908;SDS011;71372;43.514;1.512;2023-08-01T11:43:24;2.95;;;1.02;;
81908;SDS011;71372;43.514;1.512;2023-08-01T11:45:51;2.58;;;1.20;;
81908;SDS011;71372;43.514;1.512;2023-08-01T11:48:20;2.55;;;1.10;;
81908;SDS011;71372;43.514;1.512;2023-08-01T11:50:47;3.25;;;1.17;;
81908;SDS011;71372;43.514;1.512;2023-08-01T11:53:17;3.78;;;1.20;;
81908;SDS011;71372;43.514;1.512;2023-08-01T11:55:44;3.00;;;1.20;;
81908;SDS011;71372;43.514;1.512;2023-08-01T11:58:10;5.45;;;1.42;;
81908;SDS011;71372;43.514;1.512;2023-08-01T12:00:36;2.03;;;1.20;;
81908;SDS011;71372;43.514;1.512;2023-08-01T12:03:03;3.17;;;1.27;;
81908;SDS011;71372;43.514;1.512;2023-08-01T12:05:33;1.77;;;1.20;;
81908;SDS011;71372;43.514;1.512;2023-08-01T12:08:12;3.05;;;1.45;;
81908;SDS011;71372;43.514;1.512;2023-08-01T12:13:06;2.83;;;1.35;;
81908;SDS011;71372;43.514;1.512;2023-08-01T12:15:32;2.38;;;1.25;;
81908;SDS011;71372;43.514;1.512;2023-08-01T12:17:58;1.38;;;1.20;;
81908;SDS011;71372;43.514;1.512;2023-08-01T12:20:24;2.58;;;1.13;;
81908;SDS011;71372;43.514;1.512;2023-08-01T12:22:50;2.17;;;1.40;;
81908;SDS011;71372;43.514;1.512;2023-08-01T12:25:15;3.78;;;1.30;;
81908;SDS011;71372;43.514;1.512;2023-08-01T12:27:41;2.70;;;1.30;;
81908;SDS011;71372;43.514;1.512;2023-08-01T12:30:07;3.80;;;1.30;;
81908;SDS011;71372;43.514;1.512;2023-08-01T12:32:34;3.45;;;1.10;;
81908;SDS011;71372;43.514;1.512;2023-08-01T12:35:00;2.65;;;1.00;;
81908;SDS011;71372;43.514;1.512;2023-08-01T12:37:26;2.85;;;1.05;;
81908;SDS011;71372;43.514;1.512;2023-08-01T12:39:52;2.72;;;1.10;;
81908;SDS011;71372;43.514;1.512;2023-08-01T12:42:19;1.63;;;0.93;;
81908;SDS011;71372;43.514;1.512;2023-08-01T12:44:45;1.73;;;0.90;;
81908;SDS011;71372;43.514;1.512;2023-08-01T12:47:11;1.77;;;0.90;;
81908;SDS011;71372;43.514;1.512;2023-08-01T12:49:37;1.63;;;0.90;;
81908;SDS011;71372;43.514;1.512;2023-08-01T12:52:03;1.38;;;0.60;;
81908;SDS011;71372;43.514;1.512;2023-08-01T12:54:29;0.80;;;0.50;;
81908;SDS011;71372;43.514;1.512;2023-08-01T12:56:55;1.48;;;0.70;;
81908;SDS011;71372;43.514;1.512;2023-08-01T12:59:21;2.58;;;0.60;;
81908;SDS011;71372;43.514;1.512;2023-08-01T13:01:47;0.80;;;0.60;;
81908;SDS011;71372;43.514;1.512;2023-08-01T13:04:13;1.08;;;0.68;;
81908;SDS011;71372;43.514;1.512;2023-08-01T13:06:39;2.28;;;1.38;;
81908;SDS011;71372;43.514;1.512;2023-08-01T13:09:04;1.10;;;0.80;;
81908;SDS011;71372;43.514;1.512;2023-08-01T13:11:30;1.77;;;0.88;;
81908;SDS011;71372;43.514;1.512;2023-08-01T13:13:56;1.35;;;1.02;;
81908;SDS011;71372;43.514;1.512;2023-08-01T13:16:22;1.33;;;0.70;;
81908;SDS011;71372;43.514;1.512;2023-08-01T13:18:48;1.63;;;0.90;;
81908;SDS011;71372;43.514;1.512;2023-08-01T13:21:14;1.48;;;0.98;;
81908;SDS011;71372;43.514;1.512;2023-08-01T13:23:40;0.98;;;0.75;;
81908;SDS011;71372;43.514;1.512;2023-08-01T13:26:06;1.08;;;0.60;;
81908;SDS011;71372;43.514;1.512;2023-08-01T13:28:32;1.33;;;0.80;;
81908;SDS011;71372;43.514;1.512;2023-08-01T13:30:58;1.20;;;0.70;;
81908;SDS011;71372;43.514;1.512;2023-08-01T13:33:24;1.00;;;0.85;;
81908;SDS011;71372;43.514;1.512;2023-08-01T13:35:51;1.38;;;0.98;;
81908;SDS011;71372;43.514;1.512;2023-08-01T13:38:18;2.00;;;1.00;;
81908;SDS011;71372;43.514;1.512;2023-08-01T13:40:44;1.35;;;0.85;;
81908;SDS011;71372;43.514;1.512;2023-08-01T13:43:10;1.50;;;0.73;;
81908;SDS011;71372;43.514;1.512;2023-08-01T13:45:36;1.45;;;0.70;;
81908;SDS011;71372;43.514;1.512;2023-08-01T13:48:02;0.65;;;0.60;;
81908;SDS011;71372;43.514;1.512;2023-08-01T13:50:28;0.68;;;0.50;;
81908;SDS011;71372;43.514;1.512;2023-08-01T13:52:55;0.70;;;0.60;;
81908;SDS011;71372;43.514;1.512;2023-08-01T13:55:21;2.03;;;0.50;;
81908;SDS011;71372;43.514;1.512;2023-08-01T13:57:47;1.30;;;0.70;;
81908;SDS011;71372;43.514;1.512;2023-08-01T14:00:13;2.05;;;0.60;;
81908;SDS011;71372;43.514;1.512;2023-08-01T14:02:39;1.00;;;0.50;;
81908;SDS011;71372;43.514;1.512;2023-08-01T14:05:05;1.42;;;0.60;;
81908;SDS011;71372;43.514;1.512;2023-08-01T14:07:34;1.70;;;0.60;;
81908;SDS011;71372;43.514;1.512;2023-08-01T14:10:01;2.67;;;0.55;;
81908;SDS011;71372;43.514;1.512;2023-08-01T14:12:27;1.77;;;0.60;;
81908;SDS011;71372;43.514;1.512;2023-08-01T14:14:53;1.42;;;0.70;;
81908;SDS011;71372;43.514;1.512;2023-08-01T14:17:19;1.45;;;0.80;;
81908;SDS011;71372;43.514;1.512;2023-08-01T14:19:45;2.00;;;0.90;;
81908;SDS011;71372;43.514;1.512;2023-08-01T14:22:11;0.93;;;0.73;;
81908;SDS011;71372;43.514;1.512;2023-08-01T14:24:37;0.93;;;0.80;;
81908;SDS011;71372;43.514;1.512;2023-08-01T14:27:04;1.90;;;0.90;;
81908;SDS011;71372;43.514;1.512;2023-08-01T14:29:30;1.10;;;0.80;;
81908;SDS011;71372;43.514;1.512;2023-08-01T14:31:56;2.03;;;1.00;;
81908;SDS011;71372;43.514;1.512;2023-08-01T14:34:22;2.13;;;1.20;;
81908;SDS011;71372;43.514;1.512;2023-08-01T14:36:48;1.25;;;1.02;;
81908;SDS011;71372;43.514;1.512;2023-08-01T14:39:14;2.42;;;1.23;;
81908;SDS011;71372;43.514;1.512;2023-08-01T14:41:40;2.00;;;1.20;;
81908;SDS011;71372;43.514;1.512;2023-08-01T14:44:06;1.98;;;1.13;;
81908;SDS011;71372;43.514;1.512;2023-08-01T14:46:32;1.95;;;1.20;;
81908;SDS011;71372;43.514;1.512;2023-08-01T14:48:58;1.50;;;1.02;;
81908;SDS011;71372;43.514;1.512;2023-08-01T14:51:24;1.48;;;1.15;;
81908;SDS011;71372;43.514;1.512;2023-08-01T14:53:50;1.90;;;1.38;;
81908;SDS011;71372;43.514;1.512;2023-08-01T14:56:16;1.50;;;1.20;;
81908;SDS011;71372;43.514;1.512;2023-08-01T14:58:42;1.60;;;1.40;;
81908;SDS011;71372;43.514;1.512;2023-08-01T15:01:11;2.05;;;1.40;;